sensor_id;sensor_type;location;lat;lon;timestamp;temperature;humidity
10968;DHT22;5536;49.602;10.980;2023-10-08T00:01:39;16.90;99.90
10968;DHT22;5536;49.602;10.980;2023-10-08T00:04:08;17.00;99.90
10968;DHT22;5536;49.602;10.980;2023-10-08T00:06:36;17.00;99.90
10968;DHT22;5536;49.602;10.980;2023-10-08T00:09:04;17.10;99.90
10968;DHT22;5536;49.602;10.980;2023-10-08T00:11:34;17.40;99.90
10968;DHT22;5536;49.602;10.980;2023-10-08T00:14:03;17.40;99.90
10968;DHT22;5536;49.602;10.980;2023-10-08T00:16:35;17.50;99.90
10968;DHT22;5536;49.602;10.980;2023-10-08T00:19:05;17.40;99.90
10968;DHT22;5536;49.602;10.980;2023-10-08T00:21:34;17.40;99.90
10968;DHT22;5536;49.602;10.980;2023-10-08T00:24:04;17.40;99.90
10968;DHT22;5536;49.602;10.980;2023-10-08T00:26:33;17.40;99.90
10968;DHT22;5536;49.602;10.980;2023-10-08T00:29:06;17.40;99.90
10968;DHT22;5536;49.602;10.980;2023-10-08T00:31:43;17.30;99.90
10968;DHT22;5536;49.602;10.980;2023-10-08T00:34:11;17.20;99.90
10968;DHT22;5536;49.602;10.980;2023-10-08T00:36:40;17.00;99.90
10968;DHT22;5536;49.602;10.980;2023-10-08T00:39:08;16.90;99.90
10968;DHT22;5536;49.602;10.980;2023-10-08T00:41:40;16.70;99.90
10968;DHT22;5536;49.602;10.980;2023-10-08T00:44:09;16.50;99.90
10968;DHT22;5536;49.602;10.980;2023-10-08T00:46:39;16.40;99.90
10968;DHT22;5536;49.602;10.980;2023-10-08T00:49:09;16.30;99.90
10968;DHT22;5536;49.602;10.980;2023-10-08T00:51:51;16.20;99.90
10968;DHT22;5536;49.602;10.980;2023-10-08T00:54:43;16.10;99.90
10968;DHT22;5536;49.602;10.980;2023-10-08T00:57:25;16.20;99.90
10968;DHT22;5536;49.602;10.980;2023-10-08T00:59:52;16.30;99.90
10968;DHT22;5536;49.602;10.980;2023-10-08T01:02:19;16.20;99.90
10968;DHT22;5536;49.602;10.980;2023-10-08T01:04:52;16.20;99.90
10968;DHT22;5536;49.602;10.980;2023-10-08T01:07:21;16.20;99.90
10968;DHT22;5536;49.602;10.980;2023-10-08T01:09:49;16.20;99.90
10968;DHT22;5536;49.602;10.980;2023-10-08T01:12:18;16.20;99.90
10968;DHT22;5536;49.602;10.980;2023-10-08T01:14:52;16.20;99.90
10968;DHT22;5536;49.602;10.980;2023-10-08T01:17:20;16.30;99.90
10968;DHT22;5536;49.602;10.980;2023-10-08T01:19:52;16.40;99.90
10968;DHT22;5536;49.602;10.980;2023-10-08T01:22:35;16.30;99.90
10968;DHT22;5536;49.602;10.980;2023-10-08T01:25:05;16.30;99.90
10968;DHT22;5536;49.602;10.980;2023-10-08T01:27:34;16.30;99.90
10968;DHT22;5536;49.602;10.980;2023-10-08T01:30:03;16.20;99.90
10968;DHT22;5536;49.602;10.980;2023-10-08T01:32:37;16.10;99.90
10968;DHT22;5536;49.602;10.980;2023-10-08T01:35:05;16.10;99.90
10968;DHT22;5536;49.602;10.980;2023-10-08T01:37:48;16.10;99.90
10968;DHT22;5536;49.602;10.980;2023-10-08T01:40:16;16.00;99.90
10968;DHT22;5536;49.602;10.980;2023-10-08T01:42:44;16.00;99.90
10968;DHT22;5536;49.602;10.980;2023-10-08T01:45:11;16.00;99.90
10968;DHT22;5536;49.602;10.980;2023-10-08T01:47:43;16.20;99.90
10968;DHT22;5536;49.602;10.980;2023-10-08T01:50:10;16.10;99.90
10968;DHT22;5536;49.602;10.980;2023-10-08T01:52:48;16.10;99.90
10968;DHT22;5536;49.602;10.980;2023-10-08T01:55:15;16.10;99.90
10968;DHT22;5536;49.602;10.980;2023-10-08T01:57:45;16.10;99.90
10968;DHT22;5536;49.602;10.980;2023-10-08T02:00:13;16.20;99.90
10968;DHT22;5536;49.602;10.980;2023-10-08T02:02:44;16.10;99.90
10968;DHT22;5536;49.602;10.980;2023-10-08T02:05:11;16.10;99.90
10968;DHT22;5536;49.602;10.980;2023-10-08T02:07:41;16.20;99.90
10968;DHT22;5536;49.602;10.980;2023-10-08T02:10:11;16.20;99.90
10968;DHT22;5536;49.602;10.980;2023-10-08T02:12:39;16.20;99.90
10968;DHT22;5536;49.602;10.980;2023-10-08T02:15:07;16.30;99.90
10968;DHT22;5536;49.602;10.980;2023-10-08T02:17:37;16.40;99.90
10968;DHT22;5536;49.602;10.980;2023-10-08T02:20:06;16.30;99.90
10968;DHT22;5536;49.602;10.980;2023-10-08T02:22:33;16.30;99.90
10968;DHT22;5536;49.602;10.980;2023-10-08T02:25:01;16.20;99.90
10968;DHT22;5536;49.602;10.980;2023-10-08T02:27:30;16.30;99.90
10968;DHT22;5536;49.602;10.980;2023-10-08T02:29:58;16.40;99.90
10968;DHT22;5536;49.602;10.980;2023-10-08T02:32:25;16.30;99.90
10968;DHT22;5536;49.602;10.980;2023-10-08T02:34:52;16.10;99.90
10968;DHT22;5536;49.602;10.980;2023-10-08T02:37:19;16.00;99.90
10968;DHT22;5536;49.602;10.980;2023-10-08T02:39:46;15.90;99.90
10968;DHT22;5536;49.602;10.980;2023-10-08T02:42:14;15.80;99.90
10968;DHT22;5536;49.602;10.980;2023-10-08T02:44:43;15.80;99.90
10968;DHT22;5536;49.602;10.980;2023-10-08T02:47:11;16.00;99.90
10968;DHT22;5536;49.602;10.980;2023-10-08T02:49:39;15.90;99.90
10968;DHT22;5536;49.602;10.980;2023-10-08T02:52:07;16.00;99.90
10968;DHT22;5536;49.602;10.980;2023-10-08T02:54:35;16.20;99.90
10968;DHT22;5536;49.602;10.980;2023-10-08T02:57:03;16.20;99.90
10968;DHT22;5536;49.602;10.980;2023-10-08T02:59:36;16.30;99.90
10968;DHT22;5536;49.602;10.980;2023-10-08T03:02:08;16.40;99.90
10968;DHT22;5536;49.602;10.980;2023-10-08T03:04:42;16.50;99.90
10968;DHT22;5536;49.602;10.980;2023-10-08T03:07:10;16.60;99.90
10968;DHT22;5536;49.602;10.980;2023-10-08T03:09:47;16.70;99.90
10968;DHT22;5536;49.602;10.980;2023-10-08T03:12:15;16.70;99.90
10968;DHT22;5536;49.602;10.980;2023-10-08T03:14:43;16.70;99.90
10968;DHT22;5536;49.602;10.980;2023-10-08T03:17:27;16.80;99.90
10968;DHT22;5536;49.602;10.980;2023-10-08T03:19:55;16.70;99.90
10968;DHT22;5536;49.602;10.980;2023-10-08T03:22:27;16.70;99.90
10968;DHT22;5536;49.602;10.980;2023-10-08T03:24:59;16.60;99.90
10968;DHT22;5536;49.602;10.980;2023-10-08T03:27:40;16.60;99.90
10968;DHT22;5536;49.602;10.980;2023-10-08T03:30:09;16.60;99.90
10968;DHT22;5536;49.602;10.980;2023-10-08T03:32:42;16.60;99.90
10968;DHT22;5536;49.602;10.980;2023-10-08T03:35:11;16.60;99.90
10968;DHT22;5536;49.602;10.980;2023-10-08T03:37:39;16.60;99.90
10968;DHT22;5536;49.602;10.980;2023-10-08T03:40:11;16.60;99.90
10968;DHT22;5536;49.602;10.980;2023-10-08T03:42:51;16.50;99.90
10968;DHT22;5536;49.602;10.980;2023-10-08T03:45:21;16.50;99.90
10968;DHT22;5536;49.602;10.980;2023-10-08T03:48:04;16.50;99.90
10968;DHT22;5536;49.602;10.980;2023-10-08T03:50:34;16.50;99.90
10968;DHT22;5536;49.602;10.980;2023-10-08T03:53:08;16.40;99.90
10968;DHT22;5536;49.602;10.980;2023-10-08T03:55:37;16.40;99.90
10968;DHT22;5536;49.602;10.980;2023-10-08T03:58:06;16.40;99.90
10968;DHT22;5536;49.602;10.980;2023-10-08T04:00:37;16.40;99.90
10968;DHT22;5536;49.602;10.980;2023-10-08T04:03:09;16.40;99.90
10968;DHT22;5536;49.602;10.980;2023-10-08T04:05:38;16.30;99.90
10968;DHT22;5536;49.602;10.980;2023-10-08T04:08:25;16.20;99.90
10968;DHT22;5536;49.602;10.980;2023-10-08T04:11:08;16.20;99.90
10968;DHT22;5536;49.602;10.980;2023-10-08T04:13:47;16.10;99.90
10968;DHT22;5536;49.602;10.980;2023-10-08T04:16:14;16.10;99.90
10968;DHT22;5536;49.602;10.980;2023-10-08T04:18:46;16.10;99.90
10968;DHT22;5536;49.602;10.980;2023-10-08T04:21:17;16.10;99.90
10968;DHT22;5536;49.602;10.980;2023-10-08T04:23:46;16.10;99.90
10968;DHT22;5536;49.602;10.980;2023-10-08T04:26:17;16.10;99.90
10968;DHT22;5536;49.602;10.980;2023-10-08T04:28:49;16.10;99.90
10968;DHT22;5536;49.602;10.980;2023-10-08T04:31:21;16.10;99.90
10968;DHT22;5536;49.602;10.980;2023-10-08T04:33:52;16.10;99.90
10968;DHT22;5536;49.602;10.980;2023-10-08T04:36:19;16.10;99.90
10968;DHT22;5536;49.602;10.980;2023-10-08T04:38:47;16.10;99.90
10968;DHT22;5536;49.602;10.980;2023-10-08T04:41:15;16.10;99.90
10968;DHT22;5536;49.602;10.980;2023-10-08T04:43:45;16.00;99.90
10968;DHT22;5536;49.602;10.980;2023-10-08T04:46:15;16.00;99.90
10968;DHT22;5536;49.602;10.980;2023-10-08T04:49:06;16.10;99.90
10968;DHT22;5536;49.602;10.980;2023-10-08T04:51:43;16.00;99.90
10968;DHT22;5536;49.602;10.980;2023-10-08T04:54:11;16.00;99.90
10968;DHT22;5536;49.602;10.980;2023-10-08T04:56:42;15.90;99.90
10968;DHT22;5536;49.602;10.980;2023-10-08T04:59:09;15.90;99.90
10968;DHT22;5536;49.602;10.980;2023-10-08T05:01:37;16.00;99.90
10968;DHT22;5536;49.602;10.980;2023-10-08T05:04:14;16.10;99.90
10968;DHT22;5536;49.602;10.980;2023-10-08T05:06:52;16.10;99.90
10968;DHT22;5536;49.602;10.980;2023-10-08T05:09:44;16.00;99.90
10968;DHT22;5536;49.602;10.980;2023-10-08T05:12:18;16.00;99.90
10968;DHT22;5536;49.602;10.980;2023-10-08T05:15:00;16.00;99.90
10968;DHT22;5536;49.602;10.980;2023-10-08T05:17:46;16.00;99.90
10968;DHT22;5536;49.602;10.980;2023-10-08T05:20:25;16.00;99.90
10968;DHT22;5536;49.602;10.980;2023-10-08T05:23:11;16.00;99.90
10968;DHT22;5536;49.602;10.980;2023-10-08T05:26:07;15.90;99.90
10968;DHT22;5536;49.602;10.980;2023-10-08T05:28:36;15.90;99.90
10968;DHT22;5536;49.602;10.980;2023-10-08T05:31:13;16.00;99.90
10968;DHT22;5536;49.602;10.980;2023-10-08T05:34:02;15.90;99.90
10968;DHT22;5536;49.602;10.980;2023-10-08T05:36:44;15.90;99.90
10968;DHT22;5536;49.602;10.980;2023-10-08T05:39:25;15.90;99.90
10968;DHT22;5536;49.602;10.980;2023-10-08T05:42:06;15.80;99.90
10968;DHT22;5536;49.602;10.980;2023-10-08T05:44:39;15.80;99.90
10968;DHT22;5536;49.602;10.980;2023-10-08T05:47:11;15.70;99.90
10968;DHT22;5536;49.602;10.980;2023-10-08T05:50:05;15.80;99.90
10968;DHT22;5536;49.602;10.980;2023-10-08T05:52:51;15.80;99.90
10968;DHT22;5536;49.602;10.980;2023-10-08T05:55:28;15.90;99.90
10968;DHT22;5536;49.602;10.980;2023-10-08T05:58:00;16.00;99.90
10968;DHT22;5536;49.602;10.980;2023-10-08T06:00:39;16.00;99.90
10968;DHT22;5536;49.602;10.980;2023-10-08T06:03:13;16.00;99.90
10968;DHT22;5536;49.602;10.980;2023-10-08T06:06:01;16.10;99.90
10968;DHT22;5536;49.602;10.980;2023-10-08T06:09:03;16.10;99.90
10968;DHT22;5536;49.602;10.980;2023-10-08T06:11:48;16.10;99.90
10968;DHT22;5536;49.602;10.980;2023-10-08T06:14:33;16.10;99.90
10968;DHT22;5536;49.602;10.980;2023-10-08T06:17:19;16.20;99.90
10968;DHT22;5536;49.602;10.980;2023-10-08T06:20:00;16.20;99.90
10968;DHT22;5536;49.602;10.980;2023-10-08T06:22:35;16.20;99.90
10968;DHT22;5536;49.602;10.980;2023-10-08T06:25:05;16.20;99.90
10968;DHT22;5536;49.602;10.980;2023-10-08T06:27:46;16.20;99.90
10968;DHT22;5536;49.602;10.980;2023-10-08T06:30:13;16.20;99.90
10968;DHT22;5536;49.602;10.980;2023-10-08T06:32:43;16.20;99.90
10968;DHT22;5536;49.602;10.980;2023-10-08T06:35:11;16.20;99.90
10968;DHT22;5536;49.602;10.980;2023-10-08T06:37:44;16.20;99.90
10968;DHT22;5536;49.602;10.980;2023-10-08T06:40:13;16.20;99.90
10968;DHT22;5536;49.602;10.980;2023-10-08T06:43:06;16.20;99.90
10968;DHT22;5536;49.602;10.980;2023-10-08T06:45:44;16.10;99.90
10968;DHT22;5536;49.602;10.980;2023-10-08T06:48:13;16.10;99.90
10968;DHT22;5536;49.602;10.980;2023-10-08T06:50:46;16.10;99.90
10968;DHT22;5536;49.602;10.980;2023-10-08T06:53:14;16.10;99.90
10968;DHT22;5536;49.602;10.980;2023-10-08T06:55:45;16.20;99.90
10968;DHT22;5536;49.602;10.980;2023-10-08T06:58:14;16.20;99.90
10968;DHT22;5536;49.602;10.980;2023-10-08T07:00:42;16.30;99.90
10968;DHT22;5536;49.602;10.980;2023-10-08T07:03:15;16.30;99.90
10968;DHT22;5536;49.602;10.980;2023-10-08T07:05:44;16.30;99.90
10968;DHT22;5536;49.602;10.980;2023-10-08T07:08:20;16.40;99.90
10968;DHT22;5536;49.602;10.980;2023-10-08T07:10:50;16.50;99.90
10968;DHT22;5536;49.602;10.980;2023-10-08T07:13:17;16.60;99.90
10968;DHT22;5536;49.602;10.980;2023-10-08T07:15:48;16.60;99.90
10968;DHT22;5536;49.602;10.980;2023-10-08T07:18:16;16.70;99.90
10968;DHT22;5536;49.602;10.980;2023-10-08T07:20:50;16.80;99.90
10968;DHT22;5536;49.602;10.980;2023-10-08T07:23:19;16.80;99.90
10968;DHT22;5536;49.602;10.980;2023-10-08T07:25:56;16.90;99.90
10968;DHT22;5536;49.602;10.980;2023-10-08T07:28:28;17.00;99.90
10968;DHT22;5536;49.602;10.980;2023-10-08T07:30:55;17.00;99.90
10968;DHT22;5536;49.602;10.980;2023-10-08T07:33:23;17.00;99.90
10968;DHT22;5536;49.602;10.980;2023-10-08T07:36:02;17.00;99.90
10968;DHT22;5536;49.602;10.980;2023-10-08T07:38:37;17.00;99.90
10968;DHT22;5536;49.602;10.980;2023-10-08T07:41:06;17.00;99.90
10968;DHT22;5536;49.602;10.980;2023-10-08T07:43:33;17.10;99.90
10968;DHT22;5536;49.602;10.980;2023-10-08T07:46:00;17.20;99.90
10968;DHT22;5536;49.602;10.980;2023-10-08T07:48:27;17.20;99.90
10968;DHT22;5536;49.602;10.980;2023-10-08T07:50:57;17.20;99.90
10968;DHT22;5536;49.602;10.980;2023-10-08T07:53:24;17.20;99.90
10968;DHT22;5536;49.602;10.980;2023-10-08T07:55:51;17.20;99.90
10968;DHT22;5536;49.602;10.980;2023-10-08T07:58:20;17.20;99.90
10968;DHT22;5536;49.602;10.980;2023-10-08T08:00:47;17.30;99.90
10968;DHT22;5536;49.602;10.980;2023-10-08T08:03:21;17.30;99.90
10968;DHT22;5536;49.602;10.980;2023-10-08T08:05:48;17.30;99.90
10968;DHT22;5536;49.602;10.980;2023-10-08T08:08:19;17.40;99.90
10968;DHT22;5536;49.602;10.980;2023-10-08T08:10:49;17.50;99.90
10968;DHT22;5536;49.602;10.980;2023-10-08T08:13:24;17.40;99.90
10968;DHT22;5536;49.602;10.980;2023-10-08T08:15:54;17.40;99.90
10968;DHT22;5536;49.602;10.980;2023-10-08T08:18:25;17.30;99.90
10968;DHT22;5536;49.602;10.980;2023-10-08T08:20:59;17.30;99.90
10968;DHT22;5536;49.602;10.980;2023-10-08T08:23:29;17.30;99.90
10968;DHT22;5536;49.602;10.980;2023-10-08T08:25:56;17.50;99.90
10968;DHT22;5536;49.602;10.980;2023-10-08T08:28:38;17.70;99.90
10968;DHT22;5536;49.602;10.980;2023-10-08T08:31:06;17.80;99.90
10968;DHT22;5536;49.602;10.980;2023-10-08T08:33:42;17.90;99.90
10968;DHT22;5536;49.602;10.980;2023-10-08T08:36:26;17.90;99.90
10968;DHT22;5536;49.602;10.980;2023-10-08T08:38:53;17.80;99.90
10968;DHT22;5536;49.602;10.980;2023-10-08T08:41:20;17.80;99.90
10968;DHT22;5536;49.602;10.980;2023-10-08T08:43:51;17.70;99.90
10968;DHT22;5536;49.602;10.980;2023-10-08T08:46:30;17.70;99.90
10968;DHT22;5536;49.602;10.980;2023-10-08T08:49:01;17.60;99.90
10968;DHT22;5536;49.602;10.980;2023-10-08T08:51:30;17.60;99.90
10968;DHT22;5536;49.602;10.980;2023-10-08T08:53:57;17.50;99.90
10968;DHT22;5536;49.602;10.980;2023-10-08T08:56:26;17.50;99.90
10968;DHT22;5536;49.602;10.980;2023-10-08T08:58:58;17.50;99.90
10968;DHT22;5536;49.602;10.980;2023-10-08T09:01:26;17.60;99.90
10968;DHT22;5536;49.602;10.980;2023-10-08T09:03:59;17.50;99.90
10968;DHT22;5536;49.602;10.980;2023-10-08T09:06:27;17.60;99.90
10968;DHT22;5536;49.602;10.980;2023-10-08T09:08:54;17.60;99.90
10968;DHT22;5536;49.602;10.980;2023-10-08T09:11:39;17.60;99.90
10968;DHT22;5536;49.602;10.980;2023-10-08T09:14:09;17.50;99.90
10968;DHT22;5536;49.602;10.980;2023-10-08T09:16:37;17.50;99.90
10968;DHT22;5536;49.602;10.980;2023-10-08T09:19:04;17.60;99.90
10968;DHT22;5536;49.602;10.980;2023-10-08T09:21:37;17.60;99.90
10968;DHT22;5536;49.602;10.980;2023-10-08T09:24:05;17.70;99.90
10968;DHT22;5536;49.602;10.980;2023-10-08T09:26:36;17.70;99.90
10968;DHT22;5536;49.602;10.980;2023-10-08T09:29:05;17.80;99.90
10968;DHT22;5536;49.602;10.980;2023-10-08T09:31:35;17.90;99.90
10968;DHT22;5536;49.602;10.980;2023-10-08T09:34:03;18.00;99.90
10968;DHT22;5536;49.602;10.980;2023-10-08T09:36:31;18.20;99.90
10968;DHT22;5536;49.602;10.980;2023-10-08T09:39:01;18.20;99.90
10968;DHT22;5536;49.602;10.980;2023-10-08T09:41:31;18.20;99.90
10968;DHT22;5536;49.602;10.980;2023-10-08T09:43:58;18.10;99.90
10968;DHT22;5536;49.602;10.980;2023-10-08T09:46:30;18.20;99.90
10968;DHT22;5536;49.602;10.980;2023-10-08T09:49:01;18.20;99.90
10968;DHT22;5536;49.602;10.980;2023-10-08T09:51:33;18.20;99.90
10968;DHT22;5536;49.602;10.980;2023-10-08T09:54:08;18.30;99.90
10968;DHT22;5536;49.602;10.980;2023-10-08T09:56:39;18.20;99.90
10968;DHT22;5536;49.602;10.980;2023-10-08T09:59:09;18.10;99.90
10968;DHT22;5536;49.602;10.980;2023-10-08T10:01:37;18.10;99.90
10968;DHT22;5536;49.602;10.980;2023-10-08T10:04:08;18.10;99.90
10968;DHT22;5536;49.602;10.980;2023-10-08T10:06:36;18.10;99.90
10968;DHT22;5536;49.602;10.980;2023-10-08T10:09:05;18.20;99.90
10968;DHT22;5536;49.602;10.980;2023-10-08T10:11:35;18.30;99.90
10968;DHT22;5536;49.602;10.980;2023-10-08T10:14:03;18.30;99.90
10968;DHT22;5536;49.602;10.980;2023-10-08T10:16:32;18.30;99.90
10968;DHT22;5536;49.602;10.980;2023-10-08T10:19:02;18.40;99.90
10968;DHT22;5536;49.602;10.980;2023-10-08T10:21:32;18.50;99.90
10968;DHT22;5536;49.602;10.980;2023-10-08T10:24:00;18.50;99.90
10968;DHT22;5536;49.602;10.980;2023-10-08T10:26:32;18.40;99.90
10968;DHT22;5536;49.602;10.980;2023-10-08T10:29:22;18.40;99.90
10968;DHT22;5536;49.602;10.980;2023-10-08T10:31:53;18.30;99.90
10968;DHT22;5536;49.602;10.980;2023-10-08T10:34:21;18.20;99.90
10968;DHT22;5536;49.602;10.980;2023-10-08T10:36:51;18.20;99.90
10968;DHT22;5536;49.602;10.980;2023-10-08T10:39:28;18.20;99.90
10968;DHT22;5536;49.602;10.980;2023-10-08T10:41:58;18.20;99.90
10968;DHT22;5536;49.602;10.980;2023-10-08T10:44:29;18.20;99.90
10968;DHT22;5536;49.602;10.980;2023-10-08T10:46:57;18.20;99.90
10968;DHT22;5536;49.602;10.980;2023-10-08T10:49:48;18.20;99.90
10968;DHT22;5536;49.602;10.980;2023-10-08T10:52:21;18.10;99.90
10968;DHT22;5536;49.602;10.980;2023-10-08T10:54:59;18.10;99.90
10968;DHT22;5536;49.602;10.980;2023-10-08T10:57:44;18.10;99.90
10968;DHT22;5536;49.602;10.980;2023-10-08T11:00:19;18.20;99.90
10968;DHT22;5536;49.602;10.980;2023-10-08T11:03:13;18.20;99.90
10968;DHT22;5536;49.602;10.980;2023-10-08T11:05:44;18.30;99.90
10968;DHT22;5536;49.602;10.980;2023-10-08T11:08:17;18.40;99.90
10968;DHT22;5536;49.602;10.980;2023-10-08T11:10:47;18.40;99.90
10968;DHT22;5536;49.602;10.980;2023-10-08T11:13:17;18.50;99.90
10968;DHT22;5536;49.602;10.980;2023-10-08T11:15:46;18.60;99.90
10968;DHT22;5536;49.602;10.980;2023-10-08T11:18:16;18.60;99.90
10968;DHT22;5536;49.602;10.980;2023-10-08T11:20:44;18.70;99.90
10968;DHT22;5536;49.602;10.980;2023-10-08T11:23:11;18.70;99.90
10968;DHT22;5536;49.602;10.980;2023-10-08T11:25:54;18.70;99.90
10968;DHT22;5536;49.602;10.980;2023-10-08T11:28:35;18.80;99.90
10968;DHT22;5536;49.602;10.980;2023-10-08T11:31:08;19.10;99.90
10968;DHT22;5536;49.602;10.980;2023-10-08T11:33:38;19.20;99.90
10968;DHT22;5536;49.602;10.980;2023-10-08T11:36:07;19.30;99.90
10968;DHT22;5536;49.602;10.980;2023-10-08T11:38:44;19.30;99.90
10968;DHT22;5536;49.602;10.980;2023-10-08T11:41:16;19.30;99.90
10968;DHT22;5536;49.602;10.980;2023-10-08T11:43:54;19.30;99.90
10968;DHT22;5536;49.602;10.980;2023-10-08T11:46:23;19.30;99.90
10968;DHT22;5536;49.602;10.980;2023-10-08T11:48:53;19.20;99.90
10968;DHT22;5536;49.602;10.980;2023-10-08T11:51:24;19.10;99.90
10968;DHT22;5536;49.602;10.980;2023-10-08T11:53:51;18.90;99.90
10968;DHT22;5536;49.602;10.980;2023-10-08T11:56:20;18.80;99.90
10968;DHT22;5536;49.602;10.980;2023-10-08T11:58:49;18.90;99.90
10968;DHT22;5536;49.602;10.980;2023-10-08T12:01:17;18.90;99.90
10968;DHT22;5536;49.602;10.980;2023-10-08T12:03:44;18.90;99.90
10968;DHT22;5536;49.602;10.980;2023-10-08T12:06:12;19.00;99.90
10968;DHT22;5536;49.602;10.980;2023-10-08T12:08:42;19.10;99.90
10968;DHT22;5536;49.602;10.980;2023-10-08T12:11:15;19.00;99.90
10968;DHT22;5536;49.602;10.980;2023-10-08T12:13:43;19.10;99.90
10968;DHT22;5536;49.602;10.980;2023-10-08T12:16:14;19.10;99.90
10968;DHT22;5536;49.602;10.980;2023-10-08T12:18:49;19.10;99.90
10968;DHT22;5536;49.602;10.980;2023-10-08T12:21:19;19.10;99.90
10968;DHT22;5536;49.602;10.980;2023-10-08T12:23:47;19.10;99.90
10968;DHT22;5536;49.602;10.980;2023-10-08T12:26:15;19.10;99.90
10968;DHT22;5536;49.602;10.980;2023-10-08T12:28:46;19.10;99.90
10968;DHT22;5536;49.602;10.980;2023-10-08T12:31:14;19.10;99.90
10968;DHT22;5536;49.602;10.980;2023-10-08T12:33:47;19.10;99.90
10968;DHT22;5536;49.602;10.980;2023-10-08T12:36:17;19.10;99.90
10968;DHT22;5536;49.602;10.980;2023-10-08T12:38:48;19.00;99.90
10968;DHT22;5536;49.602;10.980;2023-10-08T12:41:15;19.00;99.90
10968;DHT22;5536;49.602;10.980;2023-10-08T12:43:45;19.00;99.90
10968;DHT22;5536;49.602;10.980;2023-10-08T12:46:18;18.90;99.90
10968;DHT22;5536;49.602;10.980;2023-10-08T12:48:49;18.90;99.90
10968;DHT22;5536;49.602;10.980;2023-10-08T12:51:20;18.80;99.90
10968;DHT22;5536;49.602;10.980;2023-10-08T12:53:49;18.80;99.90
10968;DHT22;5536;49.602;10.980;2023-10-08T12:56:24;18.80;99.90
10968;DHT22;5536;49.602;10.980;2023-10-08T12:58:59;18.80;99.90
10968;DHT22;5536;49.602;10.980;2023-10-08T13:01:29;18.90;99.90
10968;DHT22;5536;49.602;10.980;2023-10-08T13:03:56;18.90;99.90
10968;DHT22;5536;49.602;10.980;2023-10-08T13:06:27;19.00;99.90
10968;DHT22;5536;49.602;10.980;2023-10-08T13:08:55;19.00;99.90
10968;DHT22;5536;49.602;10.980;2023-10-08T13:11:24;19.00;99.90
10968;DHT22;5536;49.602;10.980;2023-10-08T13:13:52;19.00;99.90
10968;DHT22;5536;49.602;10.980;2023-10-08T13:16:24;19.00;99.90
10968;DHT22;5536;49.602;10.980;2023-10-08T13:18:51;19.00;99.90
10968;DHT22;5536;49.602;10.980;2023-10-08T13:21:22;19.10;99.90
10968;DHT22;5536;49.602;10.980;2023-10-08T13:23:50;19.00;99.90
10968;DHT22;5536;49.602;10.980;2023-10-08T13:26:17;19.10;99.90
10968;DHT22;5536;49.602;10.980;2023-10-08T13:28:48;19.10;99.90
10968;DHT22;5536;49.602;10.980;2023-10-08T13:31:15;19.10;99.90
10968;DHT22;5536;49.602;10.980;2023-10-08T13:33:46;19.30;99.90
10968;DHT22;5536;49.602;10.980;2023-10-08T13:36:18;19.30;99.90
10968;DHT22;5536;49.602;10.980;2023-10-08T13:38:45;19.20;99.90
10968;DHT22;5536;49.602;10.980;2023-10-08T13:41:13;19.10;99.90
10968;DHT22;5536;49.602;10.980;2023-10-08T13:43:42;19.00;99.90
10968;DHT22;5536;49.602;10.980;2023-10-08T13:46:12;19.00;99.90
10968;DHT22;5536;49.602;10.980;2023-10-08T13:48:40;18.80;99.90
10968;DHT22;5536;49.602;10.980;2023-10-08T13:51:09;18.30;99.90
10968;DHT22;5536;49.602;10.980;2023-10-08T13:53:39;18.00;99.90
10968;DHT22;5536;49.602;10.980;2023-10-08T13:56:08;17.70;99.90
10968;DHT22;5536;49.602;10.980;2023-10-08T13:58:37;17.50;99.90
10968;DHT22;5536;49.602;10.980;2023-10-08T14:01:07;17.30;99.90
10968;DHT22;5536;49.602;10.980;2023-10-08T14:03:45;17.20;99.90
10968;DHT22;5536;49.602;10.980;2023-10-08T14:06:14;17.00;99.90
10968;DHT22;5536;49.602;10.980;2023-10-08T14:08:42;16.90;99.90
10968;DHT22;5536;49.602;10.980;2023-10-08T14:11:17;16.90;99.90
10968;DHT22;5536;49.602;10.980;2023-10-08T14:13:44;16.90;99.90
10968;DHT22;5536;49.602;10.980;2023-10-08T14:16:13;16.90;99.90
10968;DHT22;5536;49.602;10.980;2023-10-08T14:18:43;17.00;99.90
10968;DHT22;5536;49.602;10.980;2023-10-08T14:21:17;17.10;99.90
10968;DHT22;5536;49.602;10.980;2023-10-08T14:23:44;17.20;99.90
10968;DHT22;5536;49.602;10.980;2023-10-08T14:26:12;17.10;99.90
10968;DHT22;5536;49.602;10.980;2023-10-08T14:28:41;17.20;99.90
10968;DHT22;5536;49.602;10.980;2023-10-08T14:31:10;17.20;99.90
10968;DHT22;5536;49.602;10.980;2023-10-08T14:33:41;17.20;99.90
10968;DHT22;5536;49.602;10.980;2023-10-08T14:36:22;17.10;99.90
10968;DHT22;5536;49.602;10.980;2023-10-08T14:39:07;17.10;99.90
10968;DHT22;5536;49.602;10.980;2023-10-08T14:41:51;17.20;99.90
10968;DHT22;5536;49.602;10.980;2023-10-08T14:44:36;17.30;99.90
10968;DHT22;5536;49.602;10.980;2023-10-08T14:47:03;17.40;99.90
10968;DHT22;5536;49.602;10.980;2023-10-08T14:49:34;17.40;99.90
10968;DHT22;5536;49.602;10.980;2023-10-08T14:52:02;17.30;99.90
10968;DHT22;5536;49.602;10.980;2023-10-08T14:54:30;17.20;99.90
10968;DHT22;5536;49.602;10.980;2023-10-08T14:56:59;17.10;99.90
10968;DHT22;5536;49.602;10.980;2023-10-08T14:59:28;17.00;99.90
10968;DHT22;5536;49.602;10.980;2023-10-08T15:01:56;16.90;99.90
10968;DHT22;5536;49.602;10.980;2023-10-08T15:04:24;16.90;99.90
10968;DHT22;5536;49.602;10.980;2023-10-08T15:06:54;16.70;99.90
10968;DHT22;5536;49.602;10.980;2023-10-08T15:09:23;16.70;99.90
10968;DHT22;5536;49.602;10.980;2023-10-08T15:11:50;16.70;99.90
10968;DHT22;5536;49.602;10.980;2023-10-08T15:14:18;16.70;99.90
10968;DHT22;5536;49.602;10.980;2023-10-08T15:16:45;16.60;99.90
10968;DHT22;5536;49.602;10.980;2023-10-08T15:19:18;16.50;99.90
10968;DHT22;5536;49.602;10.980;2023-10-08T15:21:45;16.40;99.90
10968;DHT22;5536;49.602;10.980;2023-10-08T15:24:16;16.40;99.90
10968;DHT22;5536;49.602;10.980;2023-10-08T15:26:44;16.40;99.90
10968;DHT22;5536;49.602;10.980;2023-10-08T15:29:13;16.40;99.90
10968;DHT22;5536;49.602;10.980;2023-10-08T15:31:40;16.30;99.90
10968;DHT22;5536;49.602;10.980;2023-10-08T15:34:08;16.30;99.90
10968;DHT22;5536;49.602;10.980;2023-10-08T15:36:38;16.30;99.90
10968;DHT22;5536;49.602;10.980;2023-10-08T15:39:05;16.30;99.90
10968;DHT22;5536;49.602;10.980;2023-10-08T15:41:35;16.10;99.90
10968;DHT22;5536;49.602;10.980;2023-10-08T15:44:04;16.10;99.90
10968;DHT22;5536;49.602;10.980;2023-10-08T15:46:31;16.10;99.90
10968;DHT22;5536;49.602;10.980;2023-10-08T15:49:00;16.10;99.90
10968;DHT22;5536;49.602;10.980;2023-10-08T15:51:28;16.10;99.90
10968;DHT22;5536;49.602;10.980;2023-10-08T15:53:57;16.20;99.90
10968;DHT22;5536;49.602;10.980;2023-10-08T15:56:25;16.20;99.90
10968;DHT22;5536;49.602;10.980;2023-10-08T15:58:52;16.10;99.90